sensor_id;sensor_type;location;lat;lon;timestamp;pressure;altitude;pressure_sealevel;temperature;humidity
74635;BME280;63140;56.306;43.984;2022-12-07T00:01:04;101078.81;;;-8.86;67.73
74635;BME280;63140;56.306;43.984;2022-12-07T00:03:30;101076.66;;;-8.90;68.10
74635;BME280;63140;56.306;43.984;2022-12-07T00:06:00;101069.81;;;-8.96;67.52
74635;BME280;63140;56.306;43.984;2022-12-07T00:08:26;101069.38;;;-8.93;67.88
74635;BME280;63140;56.306;43.984;2022-12-07T00:10:52;101069.38;;;-8.93;67.92
74635;BME280;63140;56.306;43.984;2022-12-07T00:13:18;101066.50;;;-8.84;68.81
74635;BME280;63140;56.306;43.984;2022-12-07T00:15:44;101061.81;;;-8.87;67.91
74635;BME280;63140;56.306;43.984;2022-12-07T00:18:10;101057.38;;;-8.80;68.47
74635;BME280;63140;56.306;43.984;2022-12-07T00:20:36;101060.94;;;-8.81;68.12
74635;BME280;63140;56.306;43.984;2022-12-07T00:23:02;101062.09;;;-8.77;69.02
74635;BME280;63140;56.306;43.984;2022-12-07T00:25:27;101054.50;;;-8.72;68.33
74635;BME280;63140;56.306;43.984;2022-12-07T00:27:53;101067.25;;;-8.77;68.85
74635;BME280;63140;56.306;43.984;2022-12-07T00:30:22;101061.72;;;-8.81;68.32
74635;BME280;63140;56.306;43.984;2022-12-07T00:32:49;101069.00;;;-8.78;68.00
74635;BME280;63140;56.306;43.984;2022-12-07T00:35:15;101060.38;;;-8.83;68.64
74635;BME280;63140;56.306;43.984;2022-12-07T00:37:40;101060.94;;;-8.81;68.53
74635;BME280;63140;56.306;43.984;2022-12-07T00:40:07;101062.06;;;-8.96;68.20
74635;BME280;63140;56.306;43.984;2022-12-07T00:42:33;101059.78;;;-8.85;68.89
74635;BME280;63140;56.306;43.984;2022-12-07T00:44:59;101059.25;;;-8.87;69.20
74635;BME280;63140;56.306;43.984;2022-12-07T00:47:25;101060.75;;;-8.98;68.09
74635;BME280;63140;56.306;43.984;2022-12-07T00:49:50;101068.66;;;-9.00;68.41
74635;BME280;63140;56.306;43.984;2022-12-07T00:52:16;101064.94;;;-9.04;68.98
74635;BME280;63140;56.306;43.984;2022-12-07T00:54:42;101068.88;;;-9.01;69.36
74635;BME280;63140;56.306;43.984;2022-12-07T00:57:08;101065.66;;;-8.97;69.26
74635;BME280;63140;56.306;43.984;2022-12-07T00:59:34;101069.38;;;-8.93;68.95
74635;BME280;63140;56.306;43.984;2022-12-07T01:01:59;101065.06;;;-8.99;68.98
74635;BME280;63140;56.306;43.984;2022-12-07T01:04:25;101059.06;;;-9.11;68.83
74635;BME280;63140;56.306;43.984;2022-12-07T01:06:51;101055.50;;;-9.10;68.95
74635;BME280;63140;56.306;43.984;2022-12-07T01:09:17;101057.66;;;-9.07;68.73
74635;BME280;63140;56.306;43.984;2022-12-07T01:11:43;101056.88;;;-9.07;68.62
74635;BME280;63140;56.306;43.984;2022-12-07T01:14:09;101062.84;;;-9.14;68.38
74635;BME280;63140;56.306;43.984;2022-12-07T01:16:35;101058.34;;;-9.18;69.15
74635;BME280;63140;56.306;43.984;2022-12-07T01:19:01;101055.00;;;-9.19;69.55
74635;BME280;63140;56.306;43.984;2022-12-07T01:21:29;101067.56;;;-9.10;69.10
74635;BME280;63140;56.306;43.984;2022-12-07T01:23:58;101065.22;;;-9.12;69.02
74635;BME280;63140;56.306;43.984;2022-12-07T01:26:24;101069.16;;;-9.09;69.06
74635;BME280;63140;56.306;43.984;2022-12-07T01:28:51;101053.75;;;-9.16;68.78
74635;BME280;63140;56.306;43.984;2022-12-07T01:31:23;101068.34;;;-9.10;69.25
74635;BME280;63140;56.306;43.984;2022-12-07T01:33:53;101055.44;;;-9.03;69.00
74635;BME280;63140;56.306;43.984;2022-12-07T01:38:56;101048.91;;;-9.06;68.53
74635;BME280;63140;56.306;43.984;2022-12-07T01:41:24;101069.50;;;-9.06;68.66
74635;BME280;63140;56.306;43.984;2022-12-07T01:44:26;101057.81;;;-9.02;68.50
74635;BME280;63140;56.306;43.984;2022-12-07T01:46:57;101049.63;;;-8.99;68.55
74635;BME280;63140;56.306;43.984;2022-12-07T01:54:29;101062.06;;;-9.14;68.84
74635;BME280;63140;56.306;43.984;2022-12-07T01:56:56;101058.19;;;-9.23;67.85
74635;BME280;63140;56.306;43.984;2022-12-07T01:59:24;101054.34;;;-9.32;68.32
74635;BME280;63140;56.306;43.984;2022-12-07T02:01:53;101050.34;;;-9.28;68.10
74635;BME280;63140;56.306;43.984;2022-12-07T02:04:21;101049.31;;;-9.27;68.03
74635;BME280;63140;56.306;43.984;2022-12-07T02:06:48;101053.03;;;-9.23;68.05
74635;BME280;63140;56.306;43.984;2022-12-07T02:09:15;101048.13;;;-9.25;67.99
74635;BME280;63140;56.306;43.984;2022-12-07T02:11:41;101057.75;;;-9.20;68.00
74635;BME280;63140;56.306;43.984;2022-12-07T02:14:07;101052.75;;;-9.33;67.73
74635;BME280;63140;56.306;43.984;2022-12-07T02:17:02;101053.59;;;-9.40;67.79
74635;BME280;63140;56.306;43.984;2022-12-07T02:20:00;101055.53;;;-9.35;68.16
74635;BME280;63140;56.306;43.984;2022-12-07T02:30:45;101067.44;;;-9.41;67.88
74635;BME280;63140;56.306;43.984;2022-12-07T02:33:35;101068.41;;;-9.35;67.42
74635;BME280;63140;56.306;43.984;2022-12-07T02:36:21;101055.53;;;-9.35;67.79
74635;BME280;63140;56.306;43.984;2022-12-07T02:39:00;101061.47;;;-9.34;67.63
74635;BME280;63140;56.306;43.984;2022-12-07T02:41:36;101047.41;;;-9.32;67.43
74635;BME280;63140;56.306;43.984;2022-12-07T02:44:07;101055.16;;;-9.39;67.20
74635;BME280;63140;56.306;43.984;2022-12-07T02:46:41;101053.59;;;-9.40;67.92
74635;BME280;63140;56.306;43.984;2022-12-07T02:49:08;101060.31;;;-9.39;68.08
74635;BME280;63140;56.306;43.984;2022-12-07T02:51:38;101063.16;;;-9.47;67.43
74635;BME280;63140;56.306;43.984;2022-12-07T02:54:11;101067.88;;;-9.44;68.38
74635;BME280;63140;56.306;43.984;2022-12-07T02:59:29;101053.72;;;-9.53;68.24
74635;BME280;63140;56.306;43.984;2022-12-07T03:13:05;101067.66;;;-9.67;68.78
74635;BME280;63140;56.306;43.984;2022-12-07T03:15:57;101069.19;;;-9.59;69.40
74635;BME280;63140;56.306;43.984;2022-12-07T03:18:26;101079.84;;;-9.56;68.85
74635;BME280;63140;56.306;43.984;2022-12-07T03:20:55;101077.06;;;-9.54;69.39
74635;BME280;63140;56.306;43.984;2022-12-07T03:23:25;101071.28;;;-9.50;69.19
74635;BME280;63140;56.306;43.984;2022-12-07T03:25:56;101074.28;;;-9.53;68.99
74635;BME280;63140;56.306;43.984;2022-12-07T03:28:27;101072.72;;;-9.54;68.85
74635;BME280;63140;56.306;43.984;2022-12-07T03:33:42;101060.22;;;-9.50;69.19
74635;BME280;63140;56.306;43.984;2022-12-07T03:36:26;101065.97;;;-9.55;69.42
74635;BME280;63140;56.306;43.984;2022-12-07T03:39:03;101073.84;;;-9.50;69.13
74635;BME280;63140;56.306;43.984;2022-12-07T03:41:36;101076.63;;;-9.51;69.16
74635;BME280;63140;56.306;43.984;2022-12-07T03:44:03;101080.38;;;-9.47;69.83
74635;BME280;63140;56.306;43.984;2022-12-07T03:46:42;101080.56;;;-9.49;69.55
74635;BME280;63140;56.306;43.984;2022-12-07T03:55:31;101083.88;;;-9.67;69.95
74635;BME280;63140;56.306;43.984;2022-12-07T03:58:01;101086.41;;;-9.60;69.88
74635;BME280;63140;56.306;43.984;2022-12-07T04:00:29;101096.81;;;-9.55;70.24
74635;BME280;63140;56.306;43.984;2022-12-07T04:02:55;101102.34;;;-9.51;69.88
74635;BME280;63140;56.306;43.984;2022-12-07T04:05:23;101101.41;;;-9.57;69.70
74635;BME280;63140;56.306;43.984;2022-12-07T04:07:49;101085.03;;;-9.63;69.98
74635;BME280;63140;56.306;43.984;2022-12-07T04:10:15;101092.97;;;-9.64;69.97
74635;BME280;63140;56.306;43.984;2022-12-07T04:12:41;101097.84;;;-9.56;70.62
74635;BME280;63140;56.306;43.984;2022-12-07T04:15:08;101091.28;;;-9.52;70.61
74635;BME280;63140;56.306;43.984;2022-12-07T04:17:33;101091.06;;;-9.50;70.45
74635;BME280;63140;56.306;43.984;2022-12-07T04:19:59;101103.88;;;-9.44;70.28
74635;BME280;63140;56.306;43.984;2022-12-07T04:22:25;101098.75;;;-9.44;70.15
74635;BME280;63140;56.306;43.984;2022-12-07T04:24:51;101097.16;;;-9.45;70.11
74635;BME280;63140;56.306;43.984;2022-12-07T04:27:20;101105.09;;;-9.46;70.04
74635;BME280;63140;56.306;43.984;2022-12-07T04:29:46;101094.00;;;-9.47;70.77
74635;BME280;63140;56.306;43.984;2022-12-07T04:32:12;101098.00;;;-9.51;70.77
74635;BME280;63140;56.306;43.984;2022-12-07T04:34:38;101089.56;;;-9.58;70.98
74635;BME280;63140;56.306;43.984;2022-12-07T04:37:04;101087.78;;;-9.57;72.40
74635;BME280;63140;56.306;43.984;2022-12-07T04:39:31;101084.66;;;-9.66;71.14
74635;BME280;63140;56.306;43.984;2022-12-07T04:41:59;101096.91;;;-9.62;71.81
74635;BME280;63140;56.306;43.984;2022-12-07T04:44:26;101093.06;;;-9.52;72.08
74635;BME280;63140;56.306;43.984;2022-12-07T04:46:53;101102.72;;;-9.48;71.43
74635;BME280;63140;56.306;43.984;2022-12-07T04:49:19;101093.78;;;-9.45;72.19
74635;BME280;63140;56.306;43.984;2022-12-07T04:51:45;101103.03;;;-9.38;71.98
74635;BME280;63140;56.306;43.984;2022-12-07T04:54:12;101101.81;;;-9.35;72.55
74635;BME280;63140;56.306;43.984;2022-12-07T04:56:39;101099.84;;;-9.33;71.25
74635;BME280;63140;56.306;43.984;2022-12-07T04:59:05;101105.44;;;-9.43;71.55
74635;BME280;63140;56.306;43.984;2022-12-07T05:01:31;101105.28;;;-9.48;71.76
74635;BME280;63140;56.306;43.984;2022-12-07T05:03:58;101110.88;;;-9.51;72.32
74635;BME280;63140;56.306;43.984;2022-12-07T05:06:24;101100.03;;;-9.59;72.15
74635;BME280;63140;56.306;43.984;2022-12-07T05:08:50;101114.69;;;-9.60;72.75
74635;BME280;63140;56.306;43.984;2022-12-07T05:11:16;101108.34;;;-9.57;72.78
74635;BME280;63140;56.306;43.984;2022-12-07T05:14:02;101107.84;;;-9.48;72.88
74635;BME280;63140;56.306;43.984;2022-12-07T05:16:28;101109.28;;;-9.52;73.38
74635;BME280;63140;56.306;43.984;2022-12-07T05:18:55;101110.88;;;-9.51;73.02
74635;BME280;63140;56.306;43.984;2022-12-07T05:21:20;101113.81;;;-9.47;73.20
74635;BME280;63140;56.306;43.984;2022-12-07T05:23:46;101109.84;;;-9.50;73.11
74635;BME280;63140;56.306;43.984;2022-12-07T05:26:12;101116.97;;;-9.52;73.87
74635;BME280;63140;56.306;43.984;2022-12-07T05:28:38;101113.91;;;-9.61;74.05
74635;BME280;63140;56.306;43.984;2022-12-07T05:31:04;101107.56;;;-9.58;74.30
74635;BME280;63140;56.306;43.984;2022-12-07T05:33:30;101111.47;;;-9.55;74.57
74635;BME280;63140;56.306;43.984;2022-12-07T05:35:56;101106.28;;;-9.49;74.47
74635;BME280;63140;56.306;43.984;2022-12-07T05:38:21;101103.44;;;-9.41;74.15
74635;BME280;63140;56.306;43.984;2022-12-07T05:40:47;101099.84;;;-9.33;73.45
74635;BME280;63140;56.306;43.984;2022-12-07T05:43:13;101103.19;;;-9.32;74.13
74635;BME280;63140;56.306;43.984;2022-12-07T05:45:39;101106.50;;;-9.25;73.87
74635;BME280;63140;56.306;43.984;2022-12-07T05:48:05;101102.78;;;-9.29;73.67
74635;BME280;63140;56.306;43.984;2022-12-07T05:50:31;101097.28;;;-9.33;73.67
74635;BME280;63140;56.306;43.984;2022-12-07T05:53:02;101095.25;;;-9.31;73.75
74635;BME280;63140;56.306;43.984;2022-12-07T05:55:28;101108.50;;;-9.27;73.60
74635;BME280;63140;56.306;43.984;2022-12-07T05:57:54;101110.88;;;-9.26;73.36
74635;BME280;63140;56.306;43.984;2022-12-07T06:00:38;101107.34;;;-9.31;73.11
74635;BME280;63140;56.306;43.984;2022-12-07T06:03:04;101099.84;;;-9.33;73.65
74635;BME280;63140;56.306;43.984;2022-12-07T06:05:30;101104.34;;;-9.28;73.40
74635;BME280;63140;56.306;43.984;2022-12-07T06:07:56;101100.03;;;-9.34;73.06
74635;BME280;63140;56.306;43.984;2022-12-07T06:10:21;101099.91;;;-9.40;73.26
74635;BME280;63140;56.306;43.984;2022-12-07T06:12:47;101100.41;;;-9.31;73.22
74635;BME280;63140;56.306;43.984;2022-12-07T06:15:14;101088.69;;;-9.27;72.72
74635;BME280;63140;56.306;43.984;2022-12-07T06:17:40;101094.06;;;-9.28;72.30
74635;BME280;63140;56.306;43.984;2022-12-07T06:20:06;101101.34;;;-9.25;72.85
74635;BME280;63140;56.306;43.984;2022-12-07T06:22:32;101098.78;;;-9.25;72.13
74635;BME280;63140;56.306;43.984;2022-12-07T06:24:58;101090.06;;;-9.24;72.42
74635;BME280;63140;56.306;43.984;2022-12-07T06:27:24;101113.53;;;-9.14;72.64
74635;BME280;63140;56.306;43.984;2022-12-07T06:29:50;101094.50;;;-9.13;72.04
74635;BME280;63140;56.306;43.984;2022-12-07T06:32:16;101102.03;;;-9.11;72.17
74635;BME280;63140;56.306;43.984;2022-12-07T06:34:42;101104.66;;;-9.18;71.85
74635;BME280;63140;56.306;43.984;2022-12-07T06:37:08;101120.66;;;-9.16;72.04
74635;BME280;63140;56.306;43.984;2022-12-07T06:39:33;101104.06;;;-9.20;71.96
74635;BME280;63140;56.306;43.984;2022-12-07T06:42:00;101096.72;;;-9.17;71.79
74635;BME280;63140;56.306;43.984;2022-12-07T06:44:25;101106.75;;;-9.08;72.13
74635;BME280;63140;56.306;43.984;2022-12-07T06:46:51;101099.25;;;-9.10;71.72
74635;BME280;63140;56.306;43.984;2022-12-07T06:49:17;101093.72;;;-9.14;72.16
74635;BME280;63140;56.306;43.984;2022-12-07T06:51:43;101098.09;;;-9.14;72.14
74635;BME280;63140;56.306;43.984;2022-12-07T06:54:12;101107.97;;;-9.11;71.16
74635;BME280;63140;56.306;43.984;2022-12-07T06:56:39;101105.44;;;-9.18;70.69
74635;BME280;63140;56.306;43.984;2022-12-07T06:59:06;101104.75;;;-9.31;69.65
74635;BME280;63140;56.306;43.984;2022-12-07T07:01:33;101111.78;;;-9.20;70.81
74635;BME280;63140;56.306;43.984;2022-12-07T07:03:59;101115.22;;;-9.26;69.18
74635;BME280;63140;56.306;43.984;2022-12-07T07:06:25;101110.28;;;-9.28;69.94
74635;BME280;63140;56.306;43.984;2022-12-07T07:08:51;101110.44;;;-9.23;69.96
74635;BME280;63140;56.306;43.984;2022-12-07T07:11:17;101109.22;;;-9.20;69.52
74635;BME280;63140;56.306;43.984;2022-12-07T07:13:44;101124.19;;;-9.10;69.48
74635;BME280;63140;56.306;43.984;2022-12-07T07:16:10;101113.84;;;-9.04;69.36
74635;BME280;63140;56.306;43.984;2022-12-07T07:18:36;101118.56;;;-9.01;68.42
74635;BME280;63140;56.306;43.984;2022-12-07T07:21:03;101117.84;;;-8.90;69.02
74635;BME280;63140;56.306;43.984;2022-12-07T07:23:29;101125.56;;;-8.90;68.78
74635;BME280;63140;56.306;43.984;2022-12-07T07:25:55;101123.91;;;-8.77;68.94
74635;BME280;63140;56.306;43.984;2022-12-07T07:28:22;101127.03;;;-8.75;67.71
74635;BME280;63140;56.306;43.984;2022-12-07T07:30:47;101115.88;;;-8.69;68.37
74635;BME280;63140;56.306;43.984;2022-12-07T07:33:14;101123.72;;;-8.64;68.25
74635;BME280;63140;56.306;43.984;2022-12-07T07:35:41;101118.59;;;-8.64;67.07
74635;BME280;63140;56.306;43.984;2022-12-07T07:38:07;101114.56;;;-8.78;66.97
74635;BME280;63140;56.306;43.984;2022-12-07T07:40:34;101125.34;;;-8.88;67.78
74635;BME280;63140;56.306;43.984;2022-12-07T07:43:03;101116.50;;;-8.92;67.74
74635;BME280;63140;56.306;43.984;2022-12-07T07:45:30;101116.50;;;-8.92;67.97
74635;BME280;63140;56.306;43.984;2022-12-07T07:48:00;101121.69;;;-8.99;68.36
74635;BME280;63140;56.306;43.984;2022-12-07T07:50:34;101124.63;;;-8.95;68.04
74635;BME280;63140;56.306;43.984;2022-12-07T07:53:02;101116.66;;;-8.87;68.22
74635;BME280;63140;56.306;43.984;2022-12-07T07:55:34;101120.72;;;-8.79;67.69
74635;BME280;63140;56.306;43.984;2022-12-07T07:58:06;101131.81;;;-8.79;67.34
74635;BME280;63140;56.306;43.984;2022-12-07T08:00:32;101126.00;;;-8.74;67.77
74635;BME280;63140;56.306;43.984;2022-12-07T08:02:58;101119.72;;;-8.78;67.85
74635;BME280;63140;56.306;43.984;2022-12-07T08:05:24;101126.59;;;-8.72;67.85
74635;BME280;63140;56.306;43.984;2022-12-07T08:07:50;101119.22;;;-8.69;67.70
74635;BME280;63140;56.306;43.984;2022-12-07T08:10:16;101129.75;;;-8.70;67.34
74635;BME280;63140;56.306;43.984;2022-12-07T08:12:43;101121.09;;;-8.76;67.24
74635;BME280;63140;56.306;43.984;2022-12-07T08:15:29;101131.03;;;-8.79;67.72
74635;BME280;63140;56.306;43.984;2022-12-07T08:17:55;101119.53;;;-8.77;67.90
74635;BME280;63140;56.306;43.984;2022-12-07T08:20:21;101124.25;;;-8.74;67.09
74635;BME280;63140;56.306;43.984;2022-12-07T08:22:47;101118.28;;;-8.74;67.36
74635;BME280;63140;56.306;43.984;2022-12-07T08:25:13;101125.41;;;-8.70;67.47
74635;BME280;63140;56.306;43.984;2022-12-07T08:27:39;101122.59;;;-8.68;67.62
74635;BME280;63140;56.306;43.984;2022-12-07T08:30:06;101119.09;;;-8.74;66.61
74635;BME280;63140;56.306;43.984;2022-12-07T08:32:31;101121.03;;;-8.69;67.47
74635;BME280;63140;56.306;43.984;2022-12-07T08:34:57;101126.81;;;-8.55;67.71
74635;BME280;63140;56.306;43.984;2022-12-07T08:37:23;101128.88;;;-8.64;66.93
74635;BME280;63140;56.306;43.984;2022-12-07T08:39:49;101125.75;;;-8.66;66.37
74635;BME280;63140;56.306;43.984;2022-12-07T08:42:15;101117.00;;;-8.65;66.94
74635;BME280;63140;56.306;43.984;2022-12-07T08:44:41;101115.31;;;-8.53;66.93
74635;BME280;63140;56.306;43.984;2022-12-07T08:47:07;101115.66;;;-8.49;66.17
74635;BME280;63140;56.306;43.984;2022-12-07T08:49:43;101130.59;;;-8.39;66.41
74635;BME280;63140;56.306;43.984;2022-12-07T08:52:11;101119.31;;;-8.38;65.67
74635;BME280;63140;56.306;43.984;2022-12-07T08:54:38;101111.59;;;-8.38;65.67
74635;BME280;63140;56.306;43.984;2022-12-07T08:57:06;101121.59;;;-8.49;65.45
74635;BME280;63140;56.306;43.984;2022-12-07T08:59:34;101122.88;;;-8.58;65.96
74635;BME280;63140;56.306;43.984;2022-12-07T09:02:01;101120.53;;;-8.59;66.14
74635;BME280;63140;56.306;43.984;2022-12-07T09:04:27;101114.84;;;-8.50;65.92
74635;BME280;63140;56.306;43.984;2022-12-07T09:06:55;101116.22;;;-8.47;65.81
74635;BME280;63140;56.306;43.984;2022-12-07T09:09:21;101122.88;;;-8.58;66.72
74635;BME280;63140;56.306;43.984;2022-12-07T09:11:47;101123.16;;;-8.48;67.19
74635;BME280;63140;56.306;43.984;2022-12-07T09:14:13;101123.88;;;-8.41;68.14
74635;BME280;63140;56.306;43.984;2022-12-07T09:16:39;101125.00;;;-8.36;67.01
74635;BME280;63140;56.306;43.984;2022-12-07T09:19:05;101117.41;;;-8.31;66.56
74635;BME280;63140;56.306;43.984;2022-12-07T09:21:31;101121.69;;;-8.25;66.96
74635;BME280;63140;56.306;43.984;2022-12-07T09:23:57;101131.00;;;-8.24;66.62
74635;BME280;63140;56.306;43.984;2022-12-07T09:26:23;101120.47;;;-8.23;66.98
74635;BME280;63140;56.306;43.984;2022-12-07T09:28:49;101125.53;;;-8.16;66.34
74635;BME280;63140;56.306;43.984;2022-12-07T09:31:14;101124.50;;;-7.97;67.10
74635;BME280;63140;56.306;43.984;2022-12-07T09:33:40;101111.56;;;-7.78;68.43
74635;BME280;63140;56.306;43.984;2022-12-07T09:36:07;101121.69;;;-7.65;66.42
74635;BME280;63140;56.306;43.984;2022-12-07T09:38:34;101112.41;;;-7.54;65.98
74635;BME280;63140;56.306;43.984;2022-12-07T09:41:07;101122.59;;;-7.48;65.75
74635;BME280;63140;56.306;43.984;2022-12-07T09:43:35;101116.91;;;-7.50;65.18
74635;BME280;63140;56.306;43.984;2022-12-07T09:46:01;101121.28;;;-7.38;65.43
74635;BME280;63140;56.306;43.984;2022-12-07T09:48:32;101138.03;;;-7.17;65.58
74635;BME280;63140;56.306;43.984;2022-12-07T09:51:03;101121.31;;;-7.03;64.94
74635;BME280;63140;56.306;43.984;2022-12-07T09:53:39;101124.56;;;-7.08;64.10
74635;BME280;63140;56.306;43.984;2022-12-07T09:56:06;101118.03;;;-6.75;65.12
74635;BME280;63140;56.306;43.984;2022-12-07T09:58:33;101116.72;;;-6.37;68.21
74635;BME280;63140;56.306;43.984;2022-12-07T10:03:40;101116.78;;;-5.58;62.37
74635;BME280;63140;56.306;43.984;2022-12-07T10:06:07;101116.41;;;-5.50;63.00
74635;BME280;63140;56.306;43.984;2022-12-07T10:08:36;101105.75;;;-5.37;61.45
74635;BME280;63140;56.306;43.984;2022-12-07T10:11:02;101110.94;;;-5.37;61.03
74635;BME280;63140;56.306;43.984;2022-12-07T10:13:45;101100.91;;;-5.33;62.33
74635;BME280;63140;56.306;43.984;2022-12-07T10:18:54;101110.75;;;-5.30;62.23
74635;BME280;63140;56.306;43.984;2022-12-07T10:21:25;101105.88;;;-5.27;61.67
74635;BME280;63140;56.306;43.984;2022-12-07T10:24:02;101113.28;;;-5.18;60.98
74635;BME280;63140;56.306;43.984;2022-12-07T10:29:19;101100.94;;;-5.11;62.36
74635;BME280;63140;56.306;43.984;2022-12-07T10:31:52;101102.28;;;-5.09;61.50
74635;BME280;63140;56.306;43.984;2022-12-07T10:39:53;101094.84;;;-4.83;60.58
74635;BME280;63140;56.306;43.984;2022-12-07T10:42:21;101104.00;;;-4.97;61.07
74635;BME280;63140;56.306;43.984;2022-12-07T10:44:49;101099.69;;;-5.09;59.55
74635;BME280;63140;56.306;43.984;2022-12-07T10:58:42;101107.16;;;-5.12;60.62
74635;BME280;63140;56.306;43.984;2022-12-07T11:01:24;101101.47;;;-5.09;61.05
74635;BME280;63140;56.306;43.984;2022-12-07T11:12:20;101098.03;;;-4.98;59.88
74635;BME280;63140;56.306;43.984;2022-12-07T11:25:32;101105.66;;;-6.21;62.24
74635;BME280;63140;56.306;43.984;2022-12-07T11:30:38;101092.00;;;-6.33;63.86
74635;BME280;63140;56.306;43.984;2022-12-07T11:33:32;101093.84;;;-6.45;64.11
74635;BME280;63140;56.306;43.984;2022-12-07T11:36:24;101088.47;;;-6.56;64.41
74635;BME280;63140;56.306;43.984;2022-12-07T11:39:01;101095.00;;;-6.65;65.04
74635;BME280;63140;56.306;43.984;2022-12-07T11:41:34;101088.06;;;-6.76;65.10
74635;BME280;63140;56.306;43.984;2022-12-07T11:44:24;101092.56;;;-6.83;65.06
74635;BME280;63140;56.306;43.984;2022-12-07T11:49:47;101087.19;;;-7.17;65.55
74635;BME280;63140;56.306;43.984;2022-12-07T11:55:18;101085.63;;;-7.18;66.35
74635;BME280;63140;56.306;43.984;2022-12-07T11:57:50;101083.94;;;-7.24;65.78
74635;BME280;63140;56.306;43.984;2022-12-07T12:00:19;101083.50;;;-7.33;65.87
74635;BME280;63140;56.306;43.984;2022-12-07T12:03:01;101075.97;;;-7.46;66.45
74635;BME280;63140;56.306;43.984;2022-12-07T12:05:30;101080.19;;;-7.52;66.50
74635;BME280;63140;56.306;43.984;2022-12-07T12:08:16;101078.28;;;-7.56;67.18
74635;BME280;63140;56.306;43.984;2022-12-07T12:10:59;101077.97;;;-7.60;67.25
74635;BME280;63140;56.306;43.984;2022-12-07T12:21:57;101080.28;;;-7.82;68.02
74635;BME280;63140;56.306;43.984;2022-12-07T12:24:31;101091.81;;;-7.84;68.22
74635;BME280;63140;56.306;43.984;2022-12-07T12:27:08;101096.28;;;-7.92;68.59
74635;BME280;63140;56.306;43.984;2022-12-07T12:29:38;101088.97;;;-7.95;68.36
74635;BME280;63140;56.306;43.984;2022-12-07T12:42:53;101069.59;;;-8.27;68.97
74635;BME280;63140;56.306;43.984;2022-12-07T12:45:30;101082.91;;;-8.30;68.61
74635;BME280;63140;56.306;43.984;2022-12-07T12:48:01;101081.19;;;-8.36;69.07
74635;BME280;63140;56.306;43.984;2022-12-07T12:50:32;101083.69;;;-8.42;68.99
74635;BME280;63140;56.306;43.984;2022-12-07T12:55:49;101089.09;;;-8.50;68.55
74635;BME280;63140;56.306;43.984;2022-12-07T13:00:46;101076.75;;;-8.59;68.91
74635;BME280;63140;56.306;43.984;2022-12-07T13:03:30;101083.47;;;-8.58;69.14
74635;BME280;63140;56.306;43.984;2022-12-07T13:08:54;101080.97;;;-8.65;69.05
74635;BME280;63140;56.306;43.984;2022-12-07T13:11:37;101074.25;;;-8.66;69.17
74635;BME280;63140;56.306;43.984;2022-12-07T13:20:01;101063.66;;;-8.76;69.57
74635;BME280;63140;56.306;43.984;2022-12-07T13:25:12;101055.31;;;-8.90;69.95
74635;BME280;63140;56.306;43.984;2022-12-07T13:27:54;101067.94;;;-8.89;70.65
74635;BME280;63140;56.306;43.984;2022-12-07T13:30:22;101067.53;;;-8.85;70.14
74635;BME280;63140;56.306;43.984;2022-12-07T13:32:52;101069.38;;;-8.93;70.51
74635;BME280;63140;56.306;43.984;2022-12-07T13:35:36;101061.22;;;-8.90;69.85
74635;BME280;63140;56.306;43.984;2022-12-07T13:38:28;101069.81;;;-8.96;70.82
74635;BME280;63140;56.306;43.984;2022-12-07T13:43:30;101061.53;;;-8.98;71.10
74635;BME280;63140;56.306;43.984;2022-12-07T13:45:58;101061.72;;;-8.99;70.97
74635;BME280;63140;56.306;43.984;2022-12-07T13:48:35;101063.09;;;-8.97;70.85
74635;BME280;63140;56.306;43.984;2022-12-07T13:51:03;101060.38;;;-9.02;70.73
74635;BME280;63140;56.306;43.984;2022-12-07T13:53:30;101063.94;;;-9.03;70.65
74635;BME280;63140;56.306;43.984;2022-12-07T13:56:00;101059.22;;;-9.06;71.12
74635;BME280;63140;56.306;43.984;2022-12-07T13:58:30;101053.34;;;-9.13;71.68
74635;BME280;63140;56.306;43.984;2022-12-07T14:00:57;101051.78;;;-9.14;73.10
74635;BME280;63140;56.306;43.984;2022-12-07T14:03:27;101057.34;;;-9.17;74.16
74635;BME280;63140;56.306;43.984;2022-12-07T14:06:06;101063.63;;;-9.13;73.04
74635;BME280;63140;56.306;43.984;2022-12-07T14:08:32;101058.34;;;-9.18;71.05
74635;BME280;63140;56.306;43.984;2022-12-07T14:10:59;101068.84;;;-9.20;70.68
74635;BME280;63140;56.306;43.984;2022-12-07T14:13:50;101049.91;;;-9.25;70.52
74635;BME280;63140;56.306;43.984;2022-12-07T14:18:54;101056.25;;;-9.28;70.86
74635;BME280;63140;56.306;43.984;2022-12-07T14:21:23;101059.06;;;-9.29;70.29
74635;BME280;63140;56.306;43.984;2022-12-07T14:26:38;101045.97;;;-9.28;70.26
74635;BME280;63140;56.306;43.984;2022-12-07T14:31:57;101049.19;;;-9.32;70.09
74635;BME280;63140;56.306;43.984;2022-12-07T14:34:24;101049.59;;;-9.35;70.47
74635;BME280;63140;56.306;43.984;2022-12-07T14:36:50;101052.75;;;-9.33;70.03
74635;BME280;63140;56.306;43.984;2022-12-07T14:39:16;101047.41;;;-9.32;70.49
74635;BME280;63140;56.306;43.984;2022-12-07T14:41:42;101046.44;;;-9.38;70.71
74635;BME280;63140;56.306;43.984;2022-12-07T14:44:22;101035.00;;;-9.42;70.55
74635;BME280;63140;56.306;43.984;2022-12-07T14:46:49;101053.59;;;-9.40;70.41
74635;BME280;63140;56.306;43.984;2022-12-07T14:49:16;101047.22;;;-9.37;70.00
74635;BME280;63140;56.306;43.984;2022-12-07T14:51:44;101050.38;;;-9.35;70.53
74635;BME280;63140;56.306;43.984;2022-12-07T14:54:16;101040.88;;;-9.34;70.28
74635;BME280;63140;56.306;43.984;2022-12-07T14:56:44;101037.16;;;-9.39;70.02
74635;BME280;63140;56.306;43.984;2022-12-07T14:59:12;101033.28;;;-9.48;70.14
74635;BME280;63140;56.306;43.984;2022-12-07T15:01:38;101029.56;;;-9.52;69.86
74635;BME280;63140;56.306;43.984;2022-12-07T15:04:04;101035.13;;;-9.55;69.77
74635;BME280;63140;56.306;43.984;2022-12-07T15:06:30;101030.06;;;-9.62;70.15
74635;BME280;63140;56.306;43.984;2022-12-07T15:08:56;101031.66;;;-9.67;70.19